Time;durP1;ratioP1;P1;durP2;ratioP2;P2;SDS_P1;SDS_P2;PMS_P1;PMS_P2;Temp;Humidity;BMP_temperature;BMP_pressure;BME280_temperature;BME280_humidity;BME280_pressure;Samples;Min_cycle;Max_cycle;Signal;HPM_P1;HPM_P2
2023/03/13 00:01:27;;;;;;;;;;;3.80;63.80;;;;;;5095326;28;19965;-72
2023/03/13 00:03:54;;;;;;;;;;;3.80;64.00;;;;;;5113454;28;19907;-72
2023/03/13 00:06:20;;;;;;;;;;;3.80;64.40;;;;;;5095038;28;20362;-73
2023/03/13 00:08:45;;;;;;;;;;;3.80;64.10;;;;;;5113235;28;20418;-72
2023/03/13 00:11:12;;;;;;;;;;;3.90;64.00;;;;;;5113097;28;19966;-72
2023/03/13 00:13:37;;;;;;;;;;;3.90;65.20;;;;;;5113143;28;19907;-73
2023/03/13 00:16:04;;;;;;;;;;;3.90;64.10;;;;;;5113084;28;20723;-73
2023/03/13 00:18:30;;;;;;;;;;;3.90;63.60;;;;;;5113044;28;19911;-72
2023/03/13 00:21:02;;;;;;;;;;;4.00;63.20;;;;;;5112922;28;19975;-73
2023/03/13 00:23:28;;;;;;;;;;;4.00;63.50;;;;;;5095017;28;19929;-72
2023/03/13 00:25:58;;;;;;;;;;;4.10;63.00;;;;;;5112879;28;20372;-72
2023/03/13 00:28:23;;;;;;;;;;;4.10;62.20;;;;;;5094528;28;19904;-71
2023/03/13 00:30:49;;;;;;;;;;;4.10;62.00;;;;;;5094079;28;19927;-71
2023/03/13 00:33:14;;;;;;;;;;;4.20;63.00;;;;;;5111841;28;19916;-71
2023/03/13 00:35:40;;;;;;;;;;;4.20;63.40;;;;;;5094364;28;19915;-71
2023/03/13 00:38:05;;;;;;;;;;;4.10;63.80;;;;;;5094396;28;19911;-72
2023/03/13 00:40:31;;;;;;;;;;;4.10;64.50;;;;;;5094219;28;19907;-72
2023/03/13 00:42:56;;;;;;;;;;;4.10;64.50;;;;;;5093934;28;19908;-72
2023/03/13 00:45:22;;;;;;;;;;;4.10;65.30;;;;;;5112304;28;19914;-71
2023/03/13 00:47:48;;;;;;;;;;;4.20;65.40;;;;;;5094208;28;20011;-72
2023/03/13 00:50:14;;;;;;;;;;;4.20;65.40;;;;;;5094129;28;20368;-72
2023/03/13 00:52:40;;;;;;;;;;;4.10;65.00;;;;;;5112168;28;19918;-71
2023/03/13 00:55:06;;;;;;;;;;;4.20;65.00;;;;;;5112237;28;19904;-71
2023/03/13 00:57:31;;;;;;;;;;;4.10;65.80;;;;;;5093590;28;19908;-72
2023/03/13 00:59:57;;;;;;;;;;;4.20;66.50;;;;;;5093585;28;19911;-71
2023/03/13 01:02:22;;;;;;;;;;;4.20;66.20;;;;;;5112194;28;19912;-71
2023/03/13 01:04:48;;;;;;;;;;;4.20;66.70;;;;;;5112237;28;19903;-71
2023/03/13 01:07:13;;;;;;;;;;;4.20;66.50;;;;;;5111824;28;19907;-72
2023/03/13 01:09:39;;;;;;;;;;;4.10;66.90;;;;;;5093731;28;20299;-71
2023/03/13 01:12:04;;;;;;;;;;;4.10;66.70;;;;;;5093438;28;20398;-72
2023/03/13 01:14:30;;;;;;;;;;;4.10;66.70;;;;;;5111385;28;19908;-72
2023/03/13 01:16:56;;;;;;;;;;;4.10;67.00;;;;;;5102485;28;20384;-72
2023/03/13 01:19:21;;;;;;;;;;;4.10;67.40;;;;;;5104156;28;19914;-71
2023/03/13 01:21:47;;;;;;;;;;;4.10;67.00;;;;;;5093788;28;19977;-72
2023/03/13 01:24:12;;;;;;;;;;;4.10;66.80;;;;;;5111835;28;19911;-72
2023/03/13 01:26:38;;;;;;;;;;;4.10;66.10;;;;;;5111754;28;19908;-70
2023/03/13 01:29:03;;;;;;;;;;;4.10;66.10;;;;;;5111598;28;19911;-71
2023/03/13 01:31:32;;;;;;;;;;;4.10;66.10;;;;;;5111649;28;20343;-72
2023/03/13 01:33:59;;;;;;;;;;;4.10;66.20;;;;;;5111572;28;19994;-71
2023/03/13 01:36:25;;;;;;;;;;;4.10;66.20;;;;;;5093171;28;19908;-72
2023/03/13 01:38:51;;;;;;;;;;;4.10;66.40;;;;;;5111652;28;20036;-72
2023/03/13 01:41:18;;;;;;;;;;;4.10;66.30;;;;;;5092992;28;19904;-71
2023/03/13 01:43:43;;;;;;;;;;;4.10;66.40;;;;;;5111225;28;19963;-72
2023/03/13 01:46:17;;;;;;;;;;;4.10;66.90;;;;;;5111526;28;19999;-72
2023/03/13 01:48:50;;;;;;;;;;;4.10;67.10;;;;;;5092882;28;19907;-72
2023/03/13 01:51:19;;;;;;;;;;;4.10;67.70;;;;;;5092851;28;19965;-72
2023/03/13 01:53:46;;;;;;;;;;;4.10;68.10;;;;;;5093068;28;20321;-72
2023/03/13 01:56:14;;;;;;;;;;;4.00;67.70;;;;;;5110883;28;19904;-70
2023/03/13 01:58:40;;;;;;;;;;;4.10;67.40;;;;;;5111042;28;19904;-71
2023/03/13 02:01:06;;;;;;;;;;;4.00;67.70;;;;;;5111020;28;19946;-72
2023/03/13 02:03:32;;;;;;;;;;;4.00;68.80;;;;;;5111068;28;19904;-72
2023/03/13 02:05:58;;;;;;;;;;;4.00;69.10;;;;;;5111032;28;20395;-72
2023/03/13 02:08:28;;;;;;;;;;;4.00;70.30;;;;;;5110624;28;20393;-72
2023/03/13 02:11:06;;;;;;;;;;;4.00;69.90;;;;;;5110833;28;19908;-72
2023/03/13 02:13:32;;;;;;;;;;;4.00;69.10;;;;;;5092753;28;19912;-72
2023/03/13 02:15:57;;;;;;;;;;;4.00;69.40;;;;;;5111016;28;19914;-72
2023/03/13 02:18:24;;;;;;;;;;;4.10;69.00;;;;;;5110513;28;19907;-72
2023/03/13 02:20:52;;;;;;;;;;;4.10;69.80;;;;;;5092445;28;19904;-71
2023/03/13 02:23:23;;;;;;;;;;;4.10;70.60;;;;;;5092654;28;19947;-72
2023/03/13 02:25:51;;;;;;;;;;;4.10;70.50;;;;;;5092320;28;19914;-70
2023/03/13 02:28:38;;;;;;;;;;;4.20;71.00;;;;;;5092323;28;19908;-73
2023/03/13 02:31:04;;;;;;;;;;;4.20;71.10;;;;;;5110513;28;19962;-72
2023/03/13 02:33:31;;;;;;;;;;;4.30;70.50;;;;;;5092256;28;19953;-71
2023/03/13 02:35:58;;;;;;;;;;;4.30;70.60;;;;;;5110427;28;19907;-73
2023/03/13 02:38:24;;;;;;;;;;;4.40;71.30;;;;;;5092225;28;19960;-71
2023/03/13 02:40:51;;;;;;;;;;;4.40;72.70;;;;;;5110288;28;19914;-72
2023/03/13 02:43:19;;;;;;;;;;;4.40;73.40;;;;;;5092012;28;19904;-72
2023/03/13 02:46:01;;;;;;;;;;;4.40;73.90;;;;;;5092082;28;20296;-72
2023/03/13 02:48:31;;;;;;;;;;;4.40;73.70;;;;;;5092126;28;19908;-72
2023/03/13 02:50:57;;;;;;;;;;;4.40;74.00;;;;;;5110389;28;19910;-73
2023/03/13 02:53:22;;;;;;;;;;;4.40;72.90;;;;;;5110117;28;20290;-71
2023/03/13 02:55:48;;;;;;;;;;;4.40;73.00;;;;;;5091514;28;19953;-72
2023/03/13 02:58:13;;;;;;;;;;;4.40;73.30;;;;;;5110273;28;19903;-72
2023/03/13 03:00:39;;;;;;;;;;;4.40;74.50;;;;;;5091959;28;19939;-72
2023/03/13 03:03:04;;;;;;;;;;;4.40;74.80;;;;;;5091807;28;19907;-72
2023/03/13 03:05:30;;;;;;;;;;;4.40;75.40;;;;;;5091791;28;19904;-71
2023/03/13 03:07:55;;;;;;;;;;;4.40;75.30;;;;;;5091508;28;19910;-71
2023/03/13 03:10:21;;;;;;;;;;;4.40;76.10;;;;;;5091811;28;19904;-72
2023/03/13 03:12:46;;;;;;;;;;;4.40;76.10;;;;;;5110007;28;19940;-72
2023/03/13 03:15:12;;;;;;;;;;;4.40;75.20;;;;;;5091359;28;20299;-72
2023/03/13 03:17:38;;;;;;;;;;;4.50;75.00;;;;;;5091837;28;20435;-72
2023/03/13 03:20:07;;;;;;;;;;;4.40;75.60;;;;;;5091865;28;19939;-71
2023/03/13 03:22:33;;;;;;;;;;;4.50;74.20;;;;;;5110049;28;19904;-72
2023/03/13 03:24:59;;;;;;;;;;;4.40;72.80;;;;;;5109997;28;19908;-71
2023/03/13 03:27:24;;;;;;;;;;;4.40;72.60;;;;;;5091401;28;20543;-72
2023/03/13 03:29:50;;;;;;;;;;;4.40;72.10;;;;;;5091564;28;19919;-72
2023/03/13 03:32:15;;;;;;;;;;;4.40;71.60;;;;;;5109608;28;19919;-72
2023/03/13 03:34:41;;;;;;;;;;;4.40;71.20;;;;;;5109824;28;19916;-72
2023/03/13 03:37:06;;;;;;;;;;;4.40;71.30;;;;;;5109531;28;19910;-72
2023/03/13 03:39:32;;;;;;;;;;;4.30;71.50;;;;;;5091503;28;19919;-72
2023/03/13 03:41:57;;;;;;;;;;;4.30;73.50;;;;;;5091390;28;19907;-72
2023/03/13 03:44:23;;;;;;;;;;;4.30;74.80;;;;;;5109772;28;19920;-73
2023/03/13 03:46:48;;;;;;;;;;;4.30;74.10;;;;;;5091540;28;19907;-72
2023/03/13 03:49:14;;;;;;;;;;;4.30;73.50;;;;;;5109466;28;19990;-73
2023/03/13 03:51:39;;;;;;;;;;;4.30;73.80;;;;;;5109652;28;19965;-72
2023/03/13 03:54:05;;;;;;;;;;;4.30;75.30;;;;;;5091417;28;20413;-73
2023/03/13 03:56:30;;;;;;;;;;;4.30;76.50;;;;;;5109668;28;20064;-73
2023/03/13 03:58:56;;;;;;;;;;;4.30;78.50;;;;;;5090936;28;20339;-73
2023/03/13 04:01:21;;;;;;;;;;;4.30;82.10;;;;;;5109490;28;20421;-72
2023/03/13 04:03:47;;;;;;;;;;;4.30;80.50;;;;;;5109728;28;20324;-72
2023/03/13 04:06:13;;;;;;;;;;;4.30;79.60;;;;;;5109691;28;19927;-72
2023/03/13 04:08:38;;;;;;;;;;;4.30;78.60;;;;;;5113118;28;20002;-72
2023/03/13 04:11:04;;;;;;;;;;;4.30;78.60;;;;;;5113106;28;19903;-73
2023/03/13 04:13:29;;;;;;;;;;;4.40;78.10;;;;;;5094795;28;19912;-72
2023/03/13 04:15:55;;;;;;;;;;;4.40;77.50;;;;;;5113136;28;19961;-73
2023/03/13 04:18:21;;;;;;;;;;;4.50;78.90;;;;;;5094462;28;19953;-72
2023/03/13 04:20:46;;;;;;;;;;;4.40;81.10;;;;;;5113026;28;19904;-71
2023/03/13 04:23:11;;;;;;;;;;;4.40;82.20;;;;;;5094247;28;19915;-72
2023/03/13 04:25:37;;;;;;;;;;;4.30;84.20;;;;;;5094755;28;19915;-71
2023/03/13 04:28:03;;;;;;;;;;;4.30;85.30;;;;;;5112923;28;19930;-72
2023/03/13 04:30:28;;;;;;;;;;;4.20;85.90;;;;;;5091104;28;20453;-71
2023/03/13 04:32:54;;;;;;;;;;;4.30;87.20;;;;;;5092370;28;20364;-71
2023/03/13 04:35:19;;;;;;;;;;;4.30;87.80;;;;;;5092404;28;19911;-71
2023/03/13 04:37:45;;;;;;;;;;;4.20;88.30;;;;;;5092185;28;19918;-72
2023/03/13 04:40:12;;;;;;;;;;;4.30;87.90;;;;;;5090824;28;20243;-71
2023/03/13 04:42:38;;;;;;;;;;;4.30;89.30;;;;;;5090829;28;19903;-70
2023/03/13 04:45:04;;;;;;;;;;;4.40;90.00;;;;;;5092082;28;19953;-69
2023/03/13 04:47:29;;;;;;;;;;;4.40;89.40;;;;;;5091579;28;19904;-71
2023/03/13 04:49:55;;;;;;;;;;;4.40;89.70;;;;;;5091076;28;20022;-70
2023/03/13 04:52:21;;;;;;;;;;;4.40;92.30;;;;;;5090315;28;19951;-71
2023/03/13 04:54:46;;;;;;;;;;;4.30;92.70;;;;;;5090658;28;19963;-71
2023/03/13 04:57:12;;;;;;;;;;;4.30;92.60;;;;;;5091814;28;20326;-71
2023/03/13 04:59:37;;;;;;;;;;;4.30;91.60;;;;;;5091885;28;19944;-71
2023/03/13 05:02:03;;;;;;;;;;;4.30;91.50;;;;;;5091877;28;20307;-70
2023/03/13 05:04:28;;;;;;;;;;;4.40;90.90;;;;;;5091814;28;19911;-71
2023/03/13 05:06:54;;;;;;;;;;;4.40;90.90;;;;;;5091350;28;19904;-70
2023/03/13 05:09:19;;;;;;;;;;;4.40;91.60;;;;;;5090368;28;19951;-70
2023/03/13 05:11:45;;;;;;;;;;;4.50;91.90;;;;;;5091671;28;20014;-70
2023/03/13 05:14:11;;;;;;;;;;;4.50;91.60;;;;;;5090423;28;19908;-70
2023/03/13 05:16:39;;;;;;;;;;;4.50;91.80;;;;;;5091463;28;19935;-70
2023/03/13 05:19:04;;;;;;;;;;;4.50;92.30;;;;;;5089785;28;19947;-70
2023/03/13 05:21:30;;;;;;;;;;;4.50;92.40;;;;;;5091471;28;20303;-71
2023/03/13 05:23:56;;;;;;;;;;;4.50;92.30;;;;;;5091630;28;20513;-70
2023/03/13 05:26:21;;;;;;;;;;;4.50;92.60;;;;;;5090243;28;20482;-71
2023/03/13 05:28:47;;;;;;;;;;;4.50;93.10;;;;;;5093994;28;19951;-71
2023/03/13 05:31:12;;;;;;;;;;;4.50;93.30;;;;;;5092908;28;20391;-70
2023/03/13 05:33:38;;;;;;;;;;;4.50;93.90;;;;;;5093081;28;19912;-71
2023/03/13 05:36:04;;;;;;;;;;;4.50;94.20;;;;;;5111454;28;19910;-70
2023/03/13 05:38:29;;;;;;;;;;;4.50;94.00;;;;;;5111690;28;19990;-70
2023/03/13 05:40:55;;;;;;;;;;;4.60;94.10;;;;;;5111419;28;19908;-70
2023/03/13 05:43:20;;;;;;;;;;;4.60;93.80;;;;;;5093002;28;19903;-71
2023/03/13 05:45:46;;;;;;;;;;;4.60;94.10;;;;;;5111404;28;19910;-70
2023/03/13 05:48:11;;;;;;;;;;;4.60;93.50;;;;;;5092867;28;19949;-71
2023/03/13 05:50:37;;;;;;;;;;;4.70;94.00;;;;;;5110552;28;19998;-70
2023/03/13 05:53:02;;;;;;;;;;;4.70;93.10;;;;;;5110491;28;19919;-71
2023/03/13 05:55:28;;;;;;;;;;;4.70;92.10;;;;;;5092219;28;19908;-69
2023/03/13 05:57:53;;;;;;;;;;;4.70;91.80;;;;;;5092166;28;19904;-70
2023/03/13 06:00:19;;;;;;;;;;;4.80;92.00;;;;;;5111028;28;19908;-70
2023/03/13 06:02:45;;;;;;;;;;;4.80;91.60;;;;;;5092524;28;19911;-71
2023/03/13 06:05:10;;;;;;;;;;;4.80;92.30;;;;;;5110631;28;20739;-70
2023/03/13 06:07:36;;;;;;;;;;;4.90;92.40;;;;;;5110912;28;19907;-69
2023/03/13 06:10:02;;;;;;;;;;;4.90;93.10;;;;;;5110469;28;19911;-70
2023/03/13 06:12:27;;;;;;;;;;;5.00;92.70;;;;;;5092224;28;20387;-70
2023/03/13 06:14:53;;;;;;;;;;;5.00;92.60;;;;;;5091814;28;19908;-70
2023/03/13 06:17:18;;;;;;;;;;;5.00;92.50;;;;;;5092061;28;19908;-73
2023/03/13 06:19:45;;;;;;;;;;;5.10;93.40;;;;;;5092409;28;19907;-73
2023/03/13 06:22:10;;;;;;;;;;;5.10;93.00;;;;;;5092136;28;20379;-73
2023/03/13 06:24:36;;;;;;;;;;;5.20;91.40;;;;;;5110490;28;19907;-74
2023/03/13 06:27:02;;;;;;;;;;;5.30;90.70;;;;;;5110230;28;19915;-73
2023/03/13 06:29:27;;;;;;;;;;;5.30;89.90;;;;;;5090862;28;19912;-72
2023/03/13 06:31:53;;;;;;;;;;;5.30;89.20;;;;;;5110030;28;19916;-72
2023/03/13 06:34:18;;;;;;;;;;;5.40;91.70;;;;;;5110265;28;19908;-72
2023/03/13 06:36:44;;;;;;;;;;;5.50;92.50;;;;;;5091755;28;20287;-73
2023/03/13 06:39:10;;;;;;;;;;;5.60;92.00;;;;;;5110035;28;20372;-73
2023/03/13 06:41:35;;;;;;;;;;;5.60;91.90;;;;;;5110387;28;19958;-73
2023/03/13 06:44:01;;;;;;;;;;;5.80;91.50;;;;;;5110353;28;19955;-73
2023/03/13 06:46:27;;;;;;;;;;;5.90;90.40;;;;;;5110407;28;19908;-73
2023/03/13 06:48:52;;;;;;;;;;;6.10;88.90;;;;;;5091773;28;19915;-71
2023/03/13 06:51:19;;;;;;;;;;;6.20;86.60;;;;;;5110340;28;19907;-72
2023/03/13 06:53:44;;;;;;;;;;;6.50;82.90;;;;;;5091878;28;20066;-73
2023/03/13 06:56:10;;;;;;;;;;;6.50;80.40;;;;;;5110218;28;20360;-71
2023/03/13 06:58:35;;;;;;;;;;;6.70;80.00;;;;;;5091857;28;19933;-72
2023/03/13 07:01:08;;;;;;;;;;;6.70;78.10;;;;;;5091697;28;19936;-72
2023/03/13 07:03:34;;;;;;;;;;;6.70;78.90;;;;;;5092017;28;20050;-73
2023/03/13 07:06:00;;;;;;;;;;;6.60;78.30;;;;;;5110135;28;19908;-73
2023/03/13 07:08:26;;;;;;;;;;;6.50;78.40;;;;;;5110148;28;19927;-72
2023/03/13 07:10:52;;;;;;;;;;;6.50;80.30;;;;;;5109808;28;19915;-72
2023/03/13 07:13:20;;;;;;;;;;;6.50;82.30;;;;;;5091632;28;19911;-72
2023/03/13 07:15:47;;;;;;;;;;;6.70;81.40;;;;;;5091790;28;19916;-73
2023/03/13 07:18:13;;;;;;;;;;;6.90;77.30;;;;;;5091692;28;19903;-74
2023/03/13 07:20:38;;;;;;;;;;;7.00;75.60;;;;;;5110286;28;20001;-72
2023/03/13 07:23:04;;;;;;;;;;;7.10;76.60;;;;;;5109730;28;20384;-73
2023/03/13 07:25:29;;;;;;;;;;;7.30;76.70;;;;;;5091337;28;19938;-74
2023/03/13 07:27:55;;;;;;;;;;;7.50;74.60;;;;;;5091250;28;20403;-73
2023/03/13 07:30:21;;;;;;;;;;;7.60;73.70;;;;;;5091402;28;20292;-72
2023/03/13 07:32:47;;;;;;;;;;;7.80;72.70;;;;;;5091360;28;20283;-73
2023/03/13 07:35:12;;;;;;;;;;;7.80;70.10;;;;;;5109601;28;19997;-75
2023/03/13 07:37:38;;;;;;;;;;;8.00;70.60;;;;;;5110105;28;20008;-74
2023/03/13 07:40:04;;;;;;;;;;;8.20;71.00;;;;;;5109548;28;19911;-71
2023/03/13 07:42:30;;;;;;;;;;;8.40;70.40;;;;;;5095188;28;19995;-73
2023/03/13 07:44:55;;;;;;;;;;;8.70;71.00;;;;;;5095244;28;20002;-73
2023/03/13 07:47:21;;;;;;;;;;;8.90;66.60;;;;;;5095376;28;19926;-72
2023/03/13 07:49:46;;;;;;;;;;;9.00;65.50;;;;;;5095027;28;19943;-73
2023/03/13 07:52:12;;;;;;;;;;;8.90;65.60;;;;;;5113387;28;19953;-72
2023/03/13 07:54:37;;;;;;;;;;;8.80;65.70;;;;;;5113434;28;20597;-73
2023/03/13 07:57:03;;;;;;;;;;;8.60;65.70;;;;;;5113426;28;19910;-74
2023/03/13 07:59:28;;;;;;;;;;;8.70;65.80;;;;;;5094733;28;19907;-73
2023/03/13 08:01:54;;;;;;;;;;;8.70;66.10;;;;;;5094598;28;19919;-72
2023/03/13 08:04:19;;;;;;;;;;;8.80;64.60;;;;;;5113310;28;19961;-73
2023/03/13 08:06:45;;;;;;;;;;;8.90;64.80;;;;;;5095021;28;19907;-71
2023/03/13 08:09:11;;;;;;;;;;;8.90;65.00;;;;;;5094926;28;19953;-71
2023/03/13 08:11:37;;;;;;;;;;;9.40;64.50;;;;;;5094327;28;19914;-73
2023/03/13 08:14:03;;;;;;;;;;;10.20;62.50;;;;;;5094689;28;19904;-73
2023/03/13 08:16:30;;;;;;;;;;;11.00;60.30;;;;;;5113378;28;19969;-72
2023/03/13 08:18:57;;;;;;;;;;;11.70;58.80;;;;;;5112725;28;20376;-74
2023/03/13 08:21:26;;;;;;;;;;;12.50;54.20;;;;;;5094731;28;19910;-73
2023/03/13 08:23:53;;;;;;;;;;;12.70;52.90;;;;;;5113101;28;19910;-73
2023/03/13 08:26:20;;;;;;;;;;;13.10;53.10;;;;;;5094848;28;20412;-73
2023/03/13 08:28:46;;;;;;;;;;;13.50;51.00;;;;;;5094235;28;20030;-74
2023/03/13 08:31:20;;;;;;;;;;;13.70;49.30;;;;;;5094253;28;19919;-72
2023/03/13 08:33:46;;;;;;;;;;;13.80;50.50;;;;;;5094785;28;19923;-74
2023/03/13 08:36:11;;;;;;;;;;;14.20;49.80;;;;;;5112796;28;19908;-74
2023/03/13 08:38:37;;;;;;;;;;;14.90;49.90;;;;;;5112868;28;19910;-74
2023/03/13 08:41:03;;;;;;;;;;;15.60;46.90;;;;;;5112475;28;19908;-74
2023/03/13 08:43:29;;;;;;;;;;;15.20;46.50;;;;;;5112522;28;19930;-74
2023/03/13 08:45:55;;;;;;;;;;;15.60;45.80;;;;;;5094114;28;20332;-74
2023/03/13 08:48:20;;;;;;;;;;;15.50;45.50;;;;;;5093799;28;20638;-74
2023/03/13 08:50:46;;;;;;;;;;;15.50;45.20;;;;;;5094312;28;19914;-74
2023/03/13 08:53:11;;;;;;;;;;;15.90;44.90;;;;;;5111228;28;19916;-74
2023/03/13 08:55:37;;;;;;;;;;;16.20;45.00;;;;;;5094494;28;19904;-74
2023/03/13 08:58:02;;;;;;;;;;;16.20;44.00;;;;;;5093616;28;19915;-73
2023/03/13 09:00:28;;;;;;;;;;;16.70;44.10;;;;;;5093816;28;19926;-73
2023/03/13 09:02:56;;;;;;;;;;;16.20;42.70;;;;;;5111996;28;19908;-73
2023/03/13 09:05:21;;;;;;;;;;;16.10;43.40;;;;;;5112023;28;19919;-73
2023/03/13 09:09:19;;;;;;;7.85;4.00;;;16.70;42.90;;;;;;5106895;27;20117;-70
2023/03/13 09:11:44;;;;;;;8.07;4.07;;;17.20;43.10;;;;;;5086842;28;20074;-71
2023/03/13 09:14:10;;;;;;;10.50;5.78;;;17.50;42.00;;;;;;5085400;28;20036;-71
2023/03/13 09:16:36;;;;;;;7.25;4.50;;;18.00;41.60;;;;;;5083095;28;20021;-71
2023/03/13 09:19:02;;;;;;;7.03;4.30;;;17.90;40.60;;;;;;5066408;28;20024;-71
2023/03/13 09:21:30;;;;;;;7.90;5.28;;;17.90;40.50;;;;;;5064932;28;20029;-71
2023/03/13 09:23:56;;;;;;;7.85;4.63;;;17.80;41.10;;;;;;5066393;28;20029;-71
2023/03/13 09:26:23;;;;;;;8.38;4.80;;;18.00;41.00;;;;;;5066284;28;20103;-71
2023/03/13 09:28:50;;;;;;;12.82;4.93;;;17.80;39.70;;;;;;5066145;28;20788;-71
2023/03/13 09:31:17;;;;;;;9.77;4.95;;;18.20;40.20;;;;;;5066131;28;20388;-71
2023/03/13 09:33:44;;;;;;;7.22;4.32;;;18.30;40.30;;;;;;5066123;28;20452;-71
2023/03/13 09:36:11;;;;;;;10.95;5.18;;;18.60;40.20;;;;;;5066193;28;20040;-71
2023/03/13 09:38:37;;;;;;;7.20;4.00;;;18.80;38.20;;;;;;5066079;28;20029;-71
2023/03/13 09:41:23;;;;;;;7.35;5.18;;;18.80;39.50;;;;;;5065631;28;20029;-71
2023/03/13 09:43:58;;;;;;;11.27;4.80;;;19.00;39.40;;;;;;5065503;28;20099;-71
2023/03/13 09:46:30;;;;;;;9.80;4.38;;;19.00;37.60;;;;;;5064385;28;20032;-71
2023/03/13 09:49:02;;;;;;;8.55;4.32;;;18.40;37.90;;;;;;5065762;28;20025;-71
2023/03/13 09:51:35;;;;;;;8.23;5.05;;;17.90;39.40;;;;;;5065712;28;20021;-71
2023/03/13 09:54:48;;;;;;;6.55;4.30;;;18.00;39.50;;;;;;5065609;28;20078;-72
2023/03/13 09:57:18;;;;;;;7.22;4.20;;;18.40;39.00;;;;;;5056118;28;20044;-74
2023/03/13 09:59:59;;;;;;;6.18;4.03;;;18.20;39.50;;;;;;5064258;28;20029;-74
2023/03/13 10:02:34;;;;;;;6.47;4.03;;;18.30;39.40;;;;;;5065700;28;20405;-73
2023/03/13 10:05:03;;;;;;;15.13;4.45;;;18.70;40.00;;;;;;5065453;28;20031;-72
2023/03/13 10:07:28;;;;;;;6.18;4.18;;;19.00;37.90;;;;;;5065366;28;20170;-73
2023/03/13 10:09:54;;;;;;;6.72;4.05;;;18.70;38.70;;;;;;5063975;28;20069;-73
2023/03/13 10:12:24;;;;;;;6.53;3.58;;;18.80;38.50;;;;;;5064036;28;20036;-73
2023/03/13 10:15:01;;;;;;;6.85;4.30;;;19.10;38.00;;;;;;5063956;28;20086;-72
2023/03/13 10:17:34;;;;;;;8.80;3.65;;;19.10;37.90;;;;;;5065239;28;20028;-72
2023/03/13 10:20:08;;;;;;;5.78;3.80;;;19.20;38.00;;;;;;5055756;28;20419;-72
2023/03/13 10:22:36;;;;;;;8.15;4.18;;;18.90;37.40;;;;;;5051944;28;20432;-72
2023/03/13 10:25:17;;;;;;;6.60;3.60;;;19.00;37.30;;;;;;5052215;28;20029;-72
2023/03/13 10:27:48;;;;;;;7.25;4.00;;;19.10;38.10;;;;;;5051665;28;20564;-72
2023/03/13 10:30:29;;;;;;;6.47;3.80;;;19.60;37.00;;;;;;5052059;28;20041;-72
2023/03/13 10:33:00;;;;;;;6.32;3.92;;;19.30;36.70;;;;;;5051696;28;20021;-72
2023/03/13 10:36:18;;;;;;;7.72;4.13;;;18.70;37.00;;;;;;5051597;28;20035;-72
2023/03/13 10:38:52;;;;;;;6.32;3.53;;;18.20;37.40;;;;;;5047194;28;20034;-74
2023/03/13 10:41:35;;;;;;;6.28;3.70;;;17.60;38.60;;;;;;5051635;28;20037;-74
2023/03/13 10:44:13;;;;;;;8.25;3.40;;;17.30;38.90;;;;;;5051648;28;20023;-74
2023/03/13 10:46:43;;;;;;;6.18;3.58;;;16.70;40.30;;;;;;5051541;28;20405;-72
2023/03/13 10:49:18;;;;;;;10.27;5.07;;;16.00;41.10;;;;;;5051424;28;20068;-71
2023/03/13 10:51:48;;;;;;;7.57;4.07;;;15.50;41.90;;;;;;5051536;28;20028;-71
2023/03/13 10:54:45;;;;;;;6.45;3.20;;;15.20;42.80;;;;;;5051525;28;20068;-75
2023/03/13 10:57:30;;;;;;;7.57;3.47;;;14.80;43.60;;;;;;5041983;28;20124;-74
2023/03/13 10:59:57;;;;;;;10.32;3.00;;;14.60;43.80;;;;;;5050098;28;20508;-74
2023/03/13 11:02:38;;;;;;;5.05;3.33;;;14.40;43.80;;;;;;5049847;28;20036;-74
2023/03/13 11:05:41;;;;;;;5.82;2.40;;;14.40;44.20;;;;;;5050994;28;20028;-74
2023/03/13 11:08:17;;;;;;;6.03;2.88;;;14.50;44.10;;;;;;5043911;28;20055;-75
2023/03/13 11:11:01;;;;;;;10.50;2.00;;;14.50;44.90;;;;;;5051244;28;20107;-73
2023/03/13 11:13:48;;;;;;;5.97;2.90;;;14.70;44.20;;;;;;5049627;28;20451;-75
2023/03/13 11:16:21;;;;;;;5.32;3.13;;;14.70;44.00;;;;;;5050495;28;20041;-75
2023/03/13 11:18:46;;;;;;;8.30;2.70;;;14.50;44.30;;;;;;5050854;28;20104;-74
2023/03/13 11:21:44;;;;;;;;;;;14.50;44.90;;;;;;5049910;28;20123;-74
2023/03/13 11:24:23;;;;;;;7.18;2.90;;;14.40;44.70;;;;;;5027721;28;19988;-74
2023/03/13 11:27:14;;;;;;;8.50;3.53;;;14.40;45.40;;;;;;5050855;28;20029;-74
2023/03/13 11:29:42;;;;;;;6.22;3.13;;;14.30;44.40;;;;;;5045989;28;20041;-74
2023/03/13 11:32:35;;;;;;;4.85;2.90;;;14.20;44.90;;;;;;5049699;28;20531;-74
2023/03/13 11:35:10;;;;;;;14.23;4.68;;;14.10;46.10;;;;;;5049388;28;20033;-74
2023/03/13 11:37:38;;;;;;;12.60;4.45;;;14.20;46.00;;;;;;5050663;28;20017;-74
2023/03/13 11:40:49;;;;;;;10.52;4.53;;;14.20;45.60;;;;;;5049309;28;20075;-74
2023/03/13 11:43:20;;;;;;;12.73;5.32;;;14.20;45.50;;;;;;5045927;28;20037;-74
2023/03/13 11:45:52;;;;;;;12.73;3.78;;;14.30;45.60;;;;;;5049145;28;20083;-75
2023/03/13 11:48:36;;;;;;;6.40;3.55;;;14.20;45.10;;;;;;5049173;28;20460;-76
2023/03/13 11:51:01;;;;;;;7.65;4.28;;;14.00;46.00;;;;;;5048875;28;20021;-76
2023/03/13 11:53:27;;;;;;;;;;;14.10;46.20;;;;;;5050745;28;20088;-74
2023/03/13 11:56:27;;;;;;;7.70;3.75;;;14.10;46.40;;;;;;5050088;28;20364;-74
2023/03/13 11:59:05;;;;;;;8.35;4.00;;;14.10;46.60;;;;;;5035411;28;20036;-74
2023/03/13 12:01:53;;;;;;;5.82;3.00;;;14.10;46.60;;;;;;5050080;28;20086;-74
2023/03/13 12:04:25;;;;;;;14.02;3.97;;;14.20;46.00;;;;;;5050133;28;20567;-74
2023/03/13 12:07:02;;;;;;;11.50;3.30;;;14.10;46.30;;;;;;5048529;28;20053;-75
2023/03/13 12:09:40;;;;;;;6.55;3.65;;;14.20;46.90;;;;;;5048523;28;20413;-73
2023/03/13 12:12:24;;;;;;;8.00;3.50;;;14.30;46.10;;;;;;5049798;28;20521;-74
2023/03/13 12:15:12;;;;;;;8.40;3.63;;;14.30;46.20;;;;;;5048806;28;20366;-74
2023/03/13 12:17:45;;;;;;;9.05;3.28;;;14.40;46.00;;;;;;5049902;28;20036;-74
2023/03/13 12:20:19;;;;;;;5.82;2.83;;;14.60;46.50;;;;;;5049805;28;20025;-74
2023/03/13 12:23:14;;;;;;;5.80;2.95;;;14.80;45.60;;;;;;5048347;28;20029;-74
2023/03/13 12:26:03;;;;;;;8.93;3.20;;;15.00;45.30;;;;;;5049930;28;20460;-74
2023/03/13 12:28:48;;;;;;;4.88;2.60;;;15.30;45.30;;;;;;5044056;28;20083;-73
2023/03/13 12:31:28;;;;;;;6.45;2.83;;;15.60;45.00;;;;;;5048249;28;20020;-74
2023/03/13 12:34:34;;;;;;;7.85;2.67;;;15.90;44.70;;;;;;5049540;28;20040;-75
2023/03/13 12:37:17;;;;;;;4.80;1.95;;;16.20;43.70;;;;;;5047579;28;20410;-73
2023/03/13 12:40:06;;;;;;;6.10;2.38;;;16.50;43.10;;;;;;5049384;28;20033;-74
2023/03/13 12:42:48;;;;;;;9.88;4.45;;;16.70;41.90;;;;;;5047563;28;20714;-74
2023/03/13 12:45:17;;;;;;;11.48;7.10;;;16.60;41.60;;;;;;5047825;28;20498;-74
2023/03/13 12:48:05;;;;;;;5.97;2.28;;;16.40;42.00;;;;;;5047826;28;20037;-74
2023/03/13 12:50:37;;;;;;;4.53;2.10;;;16.50;42.20;;;;;;5047734;28;20063;-73
2023/03/13 12:53:39;;;;;;;11.02;2.38;;;16.30;42.00;;;;;;5047838;28;20035;-74
2023/03/13 12:56:29;;;;;;;7.82;2.47;;;16.30;42.20;;;;;;5049108;28;20521;-73
2023/03/13 12:58:57;;;;;;;5.55;2.05;;;16.10;42.40;;;;;;5048983;28;20025;-75
2023/03/13 13:01:23;;;;;;;8.85;1.75;;;16.20;43.00;;;;;;5048921;28;20025;-75
2023/03/13 13:03:59;;;;;;;;;;;16.50;42.50;;;;;;5049661;28;20070;-73
2023/03/13 13:06:47;;;;;;;8.00;1.95;;;16.40;42.30;;;;;;5049227;28;20013;-74
2023/03/13 13:10:01;;;;;;;5.70;1.50;;;16.30;42.30;;;;;;5047303;28;20076;-75
2023/03/13 13:12:27;;;;;;;5.80;1.80;;;16.40;42.60;;;;;;5045037;28;20037;-72
2023/03/13 13:14:56;;;;;;;;;;;16.30;42.70;;;;;;5049315;28;20043;-72
2023/03/13 13:17:40;;;;;;;4.28;1.25;;;16.40;42.80;;;;;;5048925;28;20429;-73
2023/03/13 13:20:48;;;;;;;5.35;1.92;;;16.40;43.10;;;;;;5048996;28;20025;-74
2023/03/13 13:23:32;;;;;;;9.57;1.10;;;16.30;43.80;;;;;;5006631;28;20607;-74
2023/03/13 13:26:35;;;;;;;2.95;0.88;;;16.20;43.70;;;;;;5006826;28;20131;-74
2023/03/13 13:29:20;;;;;;;2.88;0.95;;;16.30;44.00;;;;;;5006065;28;20049;-75
2023/03/13 13:31:55;;;;;;;5.57;1.10;;;16.40;44.20;;;;;;5047262;28;20021;-74
2023/03/13 13:35:05;;;;;;;3.58;0.90;;;16.30;44.00;;;;;;5047603;28;20033;-74
2023/03/13 13:37:32;;;;;;;24.90;10.77;;;16.30;44.50;;;;;;5049174;28;20033;-74
2023/03/13 13:40:16;;;;;;;20.38;9.05;;;16.20;44.50;;;;;;5048953;28;20021;-73
2023/03/13 13:43:00;;;;;;;6.78;1.48;;;16.20;44.70;;;;;;5048743;28;20024;-74
2023/03/13 13:45:35;;;;;;;3.88;0.70;;;16.10;44.80;;;;;;5048829;28;20025;-73
2023/03/13 13:48:24;;;;;;;5.95;1.13;;;16.00;45.50;;;;;;5047413;28;20055;-73
2023/03/13 13:51:12;;;;;;;12.77;8.35;;;16.00;46.10;;;;;;5048627;28;20021;-72
2023/03/13 13:53:45;;;;;;;7.60;5.20;;;15.90;45.10;;;;;;5047573;28;20616;-73
2023/03/13 13:56:29;;;;;;;7.22;2.00;;;15.80;45.50;;;;;;5051698;28;20048;-74
2023/03/13 13:58:59;;;;;;;7.88;3.42;;;15.70;45.80;;;;;;5052641;28;20029;-74
2023/03/13 14:01:25;;;;;;;4.20;1.10;;;15.50;45.70;;;;;;5050769;28;20402;-73
2023/03/13 14:03:53;;;;;;;;;;;15.40;45.90;;;;;;5052735;28;20079;-75
2023/03/13 14:06:25;;;;;;;2.95;1.10;;;15.30;46.30;;;;;;5052595;28;19999;-74
2023/03/13 14:08:55;;;;;;;10.25;2.08;;;15.20;46.60;;;;;;5052100;28;20053;-74
2023/03/13 14:11:27;;;;;;;1.55;0.60;;;15.30;46.80;;;;;;5052333;28;20029;-74